sensor_id;sensor_type;location;lat;lon;timestamp;P1;durP1;ratioP1;P2;durP2;ratioP2
7169;SDS011;3626;42.656;23.312;2023-05-21T00:00:05;14.22;;;9.22;;
7169;SDS011;3626;42.656;23.312;2023-05-21T00:00:16;13.17;;;8.97;;
7169;SDS011;3626;42.656;23.312;2023-05-21T00:00:22;13.16;;;8.92;;
7169;SDS011;3626;42.656;23.312;2023-05-21T00:00:28;13.60;;;8.63;;
7169;SDS011;3626;42.656;23.312;2023-05-21T00:00:34;14.23;;;8.60;;
7169;SDS011;3626;42.656;23.312;2023-05-21T00:00:41;14.50;;;8.60;;
7169;SDS011;3626;42.656;23.312;2023-05-21T00:00:48;14.27;;;8.50;;
7169;SDS011;3626;42.656;23.312;2023-05-21T00:00:55;14.63;;;8.50;;
7169;SDS011;3626;42.656;23.312;2023-05-21T00:01:01;14.73;;;8.50;;
7169;SDS011;3626;42.656;23.312;2023-05-21T00:01:09;14.97;;;8.47;;
7169;SDS011;3626;42.656;23.312;2023-05-21T00:01:20;14.91;;;8.48;;
7169;SDS011;3626;42.656;23.312;2023-05-21T00:01:27;14.37;;;8.50;;
7169;SDS011;3626;42.656;23.312;2023-05-21T00:01:34;14.20;;;8.50;;
7169;SDS011;3626;42.656;23.312;2023-05-21T00:01:40;13.82;;;8.30;;
7169;SDS011;3626;42.656;23.312;2023-05-21T00:01:46;14.32;;;8.36;;
7169;SDS011;3626;42.656;23.312;2023-05-21T00:01:54;14.34;;;8.50;;
7169;SDS011;3626;42.656;23.312;2023-05-21T00:02:00;14.02;;;8.38;;
7169;SDS011;3626;42.656;23.312;2023-05-21T00:02:08;13.33;;;8.10;;
7169;SDS011;3626;42.656;23.312;2023-05-21T00:02:16;13.85;;;8.10;;
7169;SDS011;3626;42.656;23.312;2023-05-21T00:02:22;14.00;;;7.97;;
7169;SDS011;3626;42.656;23.312;2023-05-21T00:02:34;13.49;;;7.98;;
7169;SDS011;3626;42.656;23.312;2023-05-21T00:02:40;14.20;;;8.27;;
7169;SDS011;3626;42.656;23.312;2023-05-21T00:02:47;13.96;;;8.22;;
7169;SDS011;3626;42.656;23.312;2023-05-21T00:02:53;14.10;;;8.16;;
7169;SDS011;3626;42.656;23.312;2023-05-21T00:02:59;14.82;;;8.18;;
7169;SDS011;3626;42.656;23.312;2023-05-21T00:03:05;14.77;;;8.15;;
7169;SDS011;3626;42.656;23.312;2023-05-21T00:03:17;14.45;;;8.07;;
7169;SDS011;3626;42.656;23.312;2023-05-21T00:03:25;14.60;;;7.96;;
7169;SDS011;3626;42.656;23.312;2023-05-21T00:03:35;14.07;;;7.90;;
7169;SDS011;3626;42.656;23.312;2023-05-21T00:03:41;14.20;;;7.92;;
7169;SDS011;3626;42.656;23.312;2023-05-21T00:03:50;16.30;;;8.10;;
7169;SDS011;3626;42.656;23.312;2023-05-21T00:03:56;16.15;;;8.00;;
7169;SDS011;3626;42.656;23.312;2023-05-21T00:04:03;16.07;;;8.20;;
7169;SDS011;3626;42.656;23.312;2023-05-21T00:04:11;16.82;;;8.40;;
7169;SDS011;3626;42.656;23.312;2023-05-21T00:04:19;17.77;;;8.50;;
7169;SDS011;3626;42.656;23.312;2023-05-21T00:04:25;17.63;;;8.43;;
7169;SDS011;3626;42.656;23.312;2023-05-21T00:04:33;17.47;;;8.33;;
7169;SDS011;3626;42.656;23.312;2023-05-21T00:04:39;17.15;;;8.20;;
7169;SDS011;3626;42.656;23.312;2023-05-21T00:04:46;14.87;;;7.90;;
7169;SDS011;3626;42.656;23.312;2023-05-21T00:04:52;14.90;;;7.73;;
7169;SDS011;3626;42.656;23.312;2023-05-21T00:05:01;14.93;;;7.70;;
7169;SDS011;3626;42.656;23.312;2023-05-21T00:05:07;14.63;;;7.53;;
7169;SDS011;3626;42.656;23.312;2023-05-21T00:05:15;14.21;;;7.40;;
7169;SDS011;3626;42.656;23.312;2023-05-21T00:05:22;13.77;;;7.03;;
7169;SDS011;3626;42.656;23.312;2023-05-21T00:05:30;15.00;;;7.37;;
7169;SDS011;3626;42.656;23.312;2023-05-21T00:05:36;14.20;;;7.03;;
7169;SDS011;3626;42.656;23.312;2023-05-21T00:05:43;14.30;;;6.93;;
7169;SDS011;3626;42.656;23.312;2023-05-21T00:05:49;14.40;;;7.00;;
7169;SDS011;3626;42.656;23.312;2023-05-21T00:05:55;14.03;;;7.20;;
7169;SDS011;3626;42.656;23.312;2023-05-21T00:06:01;14.00;;;7.13;;
7169;SDS011;3626;42.656;23.312;2023-05-21T00:06:08;14.55;;;7.40;;
7169;SDS011;3626;42.656;23.312;2023-05-21T00:06:14;14.78;;;7.44;;
7169;SDS011;3626;42.656;23.312;2023-05-21T00:06:25;14.85;;;7.57;;
7169;SDS011;3626;42.656;23.312;2023-05-21T00:06:31;14.66;;;7.22;;
7169;SDS011;3626;42.656;23.312;2023-05-21T00:06:39;15.23;;;7.57;;
7169;SDS011;3626;42.656;23.312;2023-05-21T00:06:45;14.52;;;7.55;;
7169;SDS011;3626;42.656;23.312;2023-05-21T00:06:52;14.88;;;7.70;;
7169;SDS011;3626;42.656;23.312;2023-05-21T00:06:57;15.27;;;7.70;;
7169;SDS011;3626;42.656;23.312;2023-05-21T00:07:03;14.88;;;7.47;;
7169;SDS011;3626;42.656;23.312;2023-05-21T00:07:09;14.98;;;7.40;;
7169;SDS011;3626;42.656;23.312;2023-05-21T00:07:16;14.90;;;7.30;;
7169;SDS011;3626;42.656;23.312;2023-05-21T00:07:23;14.18;;;7.30;;
7169;SDS011;3626;42.656;23.312;2023-05-21T00:07:29;14.33;;;7.47;;
7169;SDS011;3626;42.656;23.312;2023-05-21T00:07:37;14.67;;;7.40;;
7169;SDS011;3626;42.656;23.312;2023-05-21T00:07:46;14.76;;;7.46;;
7169;SDS011;3626;42.656;23.312;2023-05-21T00:07:52;14.37;;;7.37;;
7169;SDS011;3626;42.656;23.312;2023-05-21T00:07:59;13.93;;;7.20;;
7169;SDS011;3626;42.656;23.312;2023-05-21T00:08:05;14.40;;;7.28;;
7169;SDS011;3626;42.656;23.312;2023-05-21T00:08:11;14.08;;;7.20;;
7169;SDS011;3626;42.656;23.312;2023-05-21T00:08:18;14.43;;;7.30;;
7169;SDS011;3626;42.656;23.312;2023-05-21T00:08:24;14.12;;;7.24;;
7169;SDS011;3626;42.656;23.312;2023-05-21T00:08:30;12.20;;;7.20;;
7169;SDS011;3626;42.656;23.312;2023-05-21T00:08:38;12.73;;;7.00;;
7169;SDS011;3626;42.656;23.312;2023-05-21T00:08:44;13.47;;;6.80;;
7169;SDS011;3626;42.656;23.312;2023-05-21T00:08:50;13.90;;;6.70;;
7169;SDS011;3626;42.656;23.312;2023-05-21T00:08:56;14.20;;;6.63;;
7169;SDS011;3626;42.656;23.312;2023-05-21T00:09:03;15.40;;;6.90;;
7169;SDS011;3626;42.656;23.312;2023-05-21T00:09:09;16.00;;;6.97;;
7169;SDS011;3626;42.656;23.312;2023-05-21T00:09:18;16.13;;;7.14;;
7169;SDS011;3626;42.656;23.312;2023-05-21T00:09:24;16.60;;;7.20;;
7169;SDS011;3626;42.656;23.312;2023-05-21T00:09:30;16.48;;;7.20;;
7169;SDS011;3626;42.656;23.312;2023-05-21T00:09:36;15.75;;;7.30;;
7169;SDS011;3626;42.656;23.312;2023-05-21T00:09:43;15.50;;;7.50;;
7169;SDS011;3626;42.656;23.312;2023-05-21T00:09:49;14.60;;;7.43;;
7169;SDS011;3626;42.656;23.312;2023-05-21T00:09:55;14.30;;;7.40;;
7169;SDS011;3626;42.656;23.312;2023-05-21T00:10:01;12.47;;;7.30;;
7169;SDS011;3626;42.656;23.312;2023-05-21T00:10:07;11.27;;;7.38;;
7169;SDS011;3626;42.656;23.312;2023-05-21T00:10:14;10.70;;;7.16;;
7169;SDS011;3626;42.656;23.312;2023-05-21T00:10:21;10.27;;;7.07;;
7169;SDS011;3626;42.656;23.312;2023-05-21T00:10:27;10.38;;;7.18;;
7169;SDS011;3626;42.656;23.312;2023-05-21T00:10:33;13.44;;;7.02;;
7169;SDS011;3626;42.656;23.312;2023-05-21T00:10:42;13.20;;;6.83;;
7169;SDS011;3626;42.656;23.312;2023-05-21T00:10:48;13.20;;;6.80;;
7169;SDS011;3626;42.656;23.312;2023-05-21T00:10:54;14.30;;;6.83;;
7169;SDS011;3626;42.656;23.312;2023-05-21T00:11:01;15.00;;;6.80;;
7169;SDS011;3626;42.656;23.312;2023-05-21T00:11:07;15.40;;;6.60;;
7169;SDS011;3626;42.656;23.312;2023-05-21T00:11:15;15.87;;;6.57;;
7169;SDS011;3626;42.656;23.312;2023-05-21T00:11:21;15.90;;;6.43;;
7169;SDS011;3626;42.656;23.312;2023-05-21T00:11:28;15.66;;;6.42;;
7169;SDS011;3626;42.656;23.312;2023-05-21T00:11:35;13.65;;;6.57;;
7169;SDS011;3626;42.656;23.312;2023-05-21T00:11:41;13.80;;;6.70;;
7169;SDS011;3626;42.656;23.312;2023-05-21T00:11:47;14.43;;;6.80;;
7169;SDS011;3626;42.656;23.312;2023-05-21T00:11:53;15.25;;;6.90;;
7169;SDS011;3626;42.656;23.312;2023-05-21T00:11:59;14.02;;;6.80;;
7169;SDS011;3626;42.656;23.312;2023-05-21T00:12:05;13.57;;;6.93;;
7169;SDS011;3626;42.656;23.312;2023-05-21T00:12:13;13.50;;;7.13;;
7169;SDS011;3626;42.656;23.312;2023-05-21T00:12:19;13.50;;;7.15;;
7169;SDS011;3626;42.656;23.312;2023-05-21T00:12:24;13.30;;;7.20;;
7169;SDS011;3626;42.656;23.312;2023-05-21T00:12:32;11.80;;;7.13;;
7169;SDS011;3626;42.656;23.312;2023-05-21T00:12:38;13.63;;;7.30;;
7169;SDS011;3626;42.656;23.312;2023-05-21T00:12:45;13.32;;;7.30;;
7169;SDS011;3626;42.656;23.312;2023-05-21T00:12:51;11.85;;;7.15;;
7169;SDS011;3626;42.656;23.312;2023-05-21T00:12:57;11.95;;;7.30;;
7169;SDS011;3626;42.656;23.312;2023-05-21T00:13:03;12.40;;;7.40;;
7169;SDS011;3626;42.656;23.312;2023-05-21T00:13:09;13.45;;;7.38;;
7169;SDS011;3626;42.656;23.312;2023-05-21T00:13:15;14.27;;;7.53;;
7169;SDS011;3626;42.656;23.312;2023-05-21T00:13:22;14.30;;;7.60;;
7169;SDS011;3626;42.656;23.312;2023-05-21T00:13:28;14.43;;;7.63;;
7169;SDS011;3626;42.656;23.312;2023-05-21T00:13:34;14.28;;;7.58;;
7169;SDS011;3626;42.656;23.312;2023-05-21T00:13:40;12.43;;;7.38;;
7169;SDS011;3626;42.656;23.312;2023-05-21T00:13:46;12.27;;;7.30;;
7169;SDS011;3626;42.656;23.312;2023-05-21T00:13:54;12.63;;;7.33;;
7169;SDS011;3626;42.656;23.312;2023-05-21T00:14:00;12.37;;;7.17;;
7169;SDS011;3626;42.656;23.312;2023-05-21T00:14:06;12.10;;;7.10;;
7169;SDS011;3626;42.656;23.312;2023-05-21T00:14:13;11.27;;;7.00;;
7169;SDS011;3626;42.656;23.312;2023-05-21T00:14:19;11.07;;;6.80;;
7169;SDS011;3626;42.656;23.312;2023-05-21T00:14:25;11.37;;;6.67;;
7169;SDS011;3626;42.656;23.312;2023-05-21T00:14:31;10.93;;;6.50;;
7169;SDS011;3626;42.656;23.312;2023-05-21T00:14:38;11.13;;;6.63;;
7169;SDS011;3626;42.656;23.312;2023-05-21T00:14:44;12.68;;;6.80;;
7169;SDS011;3626;42.656;23.312;2023-05-21T00:14:50;13.47;;;6.70;;
7169;SDS011;3626;42.656;23.312;2023-05-21T00:14:56;14.30;;;6.70;;
7169;SDS011;3626;42.656;23.312;2023-05-21T00:15:02;14.50;;;6.80;;
7169;SDS011;3626;42.656;23.312;2023-05-21T00:15:09;14.02;;;6.88;;
7169;SDS011;3626;42.656;23.312;2023-05-21T00:15:15;14.77;;;6.97;;
7169;SDS011;3626;42.656;23.312;2023-05-21T00:15:21;14.60;;;7.10;;
7169;SDS011;3626;42.656;23.312;2023-05-21T00:15:27;14.80;;;7.23;;
7169;SDS011;3626;42.656;23.312;2023-05-21T00:15:35;15.08;;;7.23;;
7169;SDS011;3626;42.656;23.312;2023-05-21T00:15:41;14.00;;;7.10;;
7169;SDS011;3626;42.656;23.312;2023-05-21T00:15:47;14.27;;;7.07;;
7169;SDS011;3626;42.656;23.312;2023-05-21T00:15:53;13.57;;;7.03;;
7169;SDS011;3626;42.656;23.312;2023-05-21T00:15:59;13.00;;;6.93;;
7169;SDS011;3626;42.656;23.312;2023-05-21T00:16:05;13.10;;;6.95;;
7169;SDS011;3626;42.656;23.312;2023-05-21T00:16:12;12.36;;;6.62;;
7169;SDS011;3626;42.656;23.312;2023-05-21T00:16:18;12.07;;;6.57;;
7169;SDS011;3626;42.656;23.312;2023-05-21T00:16:24;13.07;;;6.60;;
7169;SDS011;3626;42.656;23.312;2023-05-21T00:16:30;13.27;;;6.68;;
7169;SDS011;3626;42.656;23.312;2023-05-21T00:16:36;13.35;;;6.65;;
7169;SDS011;3626;42.656;23.312;2023-05-21T00:16:42;13.48;;;6.78;;
7169;SDS011;3626;42.656;23.312;2023-05-21T00:16:51;12.54;;;6.99;;
7169;SDS011;3626;42.656;23.312;2023-05-21T00:16:57;13.02;;;7.10;;
7169;SDS011;3626;42.656;23.312;2023-05-21T00:17:03;13.47;;;7.10;;
7169;SDS011;3626;42.656;23.312;2023-05-21T00:17:09;13.80;;;7.20;;
7169;SDS011;3626;42.656;23.312;2023-05-21T00:17:15;13.98;;;7.20;;
7169;SDS011;3626;42.656;23.312;2023-05-21T00:17:22;13.37;;;7.17;;
7169;SDS011;3626;42.656;23.312;2023-05-21T00:17:28;12.73;;;7.15;;
7169;SDS011;3626;42.656;23.312;2023-05-21T00:17:34;13.20;;;7.30;;
7169;SDS011;3626;42.656;23.312;2023-05-21T00:17:41;12.90;;;7.20;;
7169;SDS011;3626;42.656;23.312;2023-05-21T00:17:47;13.40;;;7.30;;
7169;SDS011;3626;42.656;23.312;2023-05-21T00:17:53;14.53;;;7.37;;
7169;SDS011;3626;42.656;23.312;2023-05-21T00:17:59;14.32;;;7.30;;
7169;SDS011;3626;42.656;23.312;2023-05-21T00:18:05;14.07;;;7.30;;
7169;SDS011;3626;42.656;23.312;2023-05-21T00:18:11;13.87;;;7.33;;
7169;SDS011;3626;42.656;23.312;2023-05-21T00:18:17;13.98;;;7.50;;
7169;SDS011;3626;42.656;23.312;2023-05-21T00:18:26;14.33;;;7.50;;
7169;SDS011;3626;42.656;23.312;2023-05-21T00:18:32;14.57;;;7.45;;
7169;SDS011;3626;42.656;23.312;2023-05-21T00:18:38;14.68;;;7.60;;
7169;SDS011;3626;42.656;23.312;2023-05-21T00:18:44;14.37;;;7.50;;
7169;SDS011;3626;42.656;23.312;2023-05-21T00:18:51;13.18;;;7.60;;
7169;SDS011;3626;42.656;23.312;2023-05-21T00:18:58;12.60;;;7.73;;
7169;SDS011;3626;42.656;23.312;2023-05-21T00:19:04;12.60;;;7.97;;
7169;SDS011;3626;42.656;23.312;2023-05-21T00:19:11;12.74;;;7.94;;
7169;SDS011;3626;42.656;23.312;2023-05-21T00:19:17;13.30;;;7.82;;
7169;SDS011;3626;42.656;23.312;2023-05-21T00:19:23;13.93;;;7.97;;
7169;SDS011;3626;42.656;23.312;2023-05-21T00:19:29;14.60;;;8.10;;
7169;SDS011;3626;42.656;23.312;2023-05-21T00:19:36;14.52;;;8.02;;
7169;SDS011;3626;42.656;23.312;2023-05-21T00:19:43;14.80;;;8.03;;
7169;SDS011;3626;42.656;23.312;2023-05-21T00:19:50;14.76;;;7.96;;
7169;SDS011;3626;42.656;23.312;2023-05-21T00:19:57;15.20;;;8.00;;
7169;SDS011;3626;42.656;23.312;2023-05-21T00:20:04;15.52;;;7.96;;
7169;SDS011;3626;42.656;23.312;2023-05-21T00:20:13;16.40;;;8.13;;
7169;SDS011;3626;42.656;23.312;2023-05-21T00:20:20;15.60;;;8.20;;
7169;SDS011;3626;42.656;23.312;2023-05-21T00:20:27;15.22;;;8.32;;
7169;SDS011;3626;42.656;23.312;2023-05-21T00:20:36;15.93;;;8.31;;
7169;SDS011;3626;42.656;23.312;2023-05-21T00:20:42;16.60;;;8.47;;
7169;SDS011;3626;42.656;23.312;2023-05-21T00:20:49;17.00;;;8.53;;
7169;SDS011;3626;42.656;23.312;2023-05-21T00:20:56;16.88;;;8.52;;
7169;SDS011;3626;42.656;23.312;2023-05-21T00:21:03;16.58;;;8.52;;
7169;SDS011;3626;42.656;23.312;2023-05-21T00:21:09;16.63;;;8.70;;
7169;SDS011;3626;42.656;23.312;2023-05-21T00:21:16;16.30;;;8.74;;
7169;SDS011;3626;42.656;23.312;2023-05-21T00:21:26;16.06;;;8.64;;
7169;SDS011;3626;42.656;23.312;2023-05-21T00:21:33;14.52;;;8.46;;
7169;SDS011;3626;42.656;23.312;2023-05-21T00:21:39;14.33;;;8.30;;
7169;SDS011;3626;42.656;23.312;2023-05-21T00:21:45;13.52;;;7.97;;
7169;SDS011;3626;42.656;23.312;2023-05-21T00:21:51;14.05;;;7.95;;
7169;SDS011;3626;42.656;23.312;2023-05-21T00:21:58;14.48;;;7.96;;
7169;SDS011;3626;42.656;23.312;2023-05-21T00:22:06;14.17;;;7.70;;
7169;SDS011;3626;42.656;23.312;2023-05-21T00:22:13;14.24;;;7.50;;
7169;SDS011;3626;42.656;23.312;2023-05-21T00:22:22;14.50;;;7.23;;
7169;SDS011;3626;42.656;23.312;2023-05-21T00:22:28;14.80;;;7.20;;
7169;SDS011;3626;42.656;23.312;2023-05-21T00:22:34;14.70;;;7.30;;
7169;SDS011;3626;42.656;23.312;2023-05-21T00:22:41;14.47;;;7.40;;
7169;SDS011;3626;42.656;23.312;2023-05-21T00:22:48;14.13;;;7.50;;
7169;SDS011;3626;42.656;23.312;2023-05-21T00:22:54;13.40;;;7.50;;
7169;SDS011;3626;42.656;23.312;2023-05-21T00:23:00;12.68;;;7.53;;
7169;SDS011;3626;42.656;23.312;2023-05-21T00:23:07;12.76;;;7.52;;
7169;SDS011;3626;42.656;23.312;2023-05-21T00:23:14;12.43;;;7.40;;
7169;SDS011;3626;42.656;23.312;2023-05-21T00:23:22;11.90;;;7.60;;
7169;SDS011;3626;42.656;23.312;2023-05-21T00:23:30;13.17;;;7.67;;
7169;SDS011;3626;42.656;23.312;2023-05-21T00:23:41;13.28;;;7.60;;
7169;SDS011;3626;42.656;23.312;2023-05-21T00:23:48;14.20;;;7.50;;
7169;SDS011;3626;42.656;23.312;2023-05-21T00:23:54;14.25;;;7.40;;
7169;SDS011;3626;42.656;23.312;2023-05-21T00:24:01;14.40;;;7.32;;
7169;SDS011;3626;42.656;23.312;2023-05-21T00:24:07;15.18;;;7.25;;
7169;SDS011;3626;42.656;23.312;2023-05-21T00:24:13;14.88;;;7.20;;
7169;SDS011;3626;42.656;23.312;2023-05-21T00:24:19;14.77;;;7.20;;
7169;SDS011;3626;42.656;23.312;2023-05-21T00:24:25;13.43;;;7.00;;
7169;SDS011;3626;42.656;23.312;2023-05-21T00:24:31;12.87;;;6.90;;
7169;SDS011;3626;42.656;23.312;2023-05-21T00:24:37;13.15;;;6.80;;
7169;SDS011;3626;42.656;23.312;2023-05-21T00:24:43;12.23;;;6.80;;
7169;SDS011;3626;42.656;23.312;2023-05-21T00:24:50;12.34;;;6.76;;
7169;SDS011;3626;42.656;23.312;2023-05-21T00:24:56;12.65;;;6.75;;
7169;SDS011;3626;42.656;23.312;2023-05-21T00:25:03;12.32;;;6.70;;
7169;SDS011;3626;42.656;23.312;2023-05-21T00:25:09;12.06;;;6.96;;
7169;SDS011;3626;42.656;23.312;2023-05-21T00:25:16;12.46;;;7.14;;
7169;SDS011;3626;42.656;23.312;2023-05-21T00:25:22;12.60;;;7.30;;
7169;SDS011;3626;42.656;23.312;2023-05-21T00:25:28;12.50;;;7.20;;
7169;SDS011;3626;42.656;23.312;2023-05-21T00:25:35;12.07;;;7.20;;
7169;SDS011;3626;42.656;23.312;2023-05-21T00:25:41;11.80;;;7.05;;
7169;SDS011;3626;42.656;23.312;2023-05-21T00:25:47;11.27;;;6.85;;
7169;SDS011;3626;42.656;23.312;2023-05-21T00:25:54;10.68;;;6.86;;
7169;SDS011;3626;42.656;23.312;2023-05-21T00:26:00;10.85;;;6.97;;
7169;SDS011;3626;42.656;23.312;2023-05-21T00:26:06;10.57;;;6.93;;
7169;SDS011;3626;42.656;23.312;2023-05-21T00:26:12;9.77;;;6.55;;
7169;SDS011;3626;42.656;23.312;2023-05-21T00:26:22;9.70;;;6.55;;
7169;SDS011;3626;42.656;23.312;2023-05-21T00:26:28;10.61;;;6.91;;
7169;SDS011;3626;42.656;23.312;2023-05-21T00:26:34;10.93;;;7.20;;
7169;SDS011;3626;42.656;23.312;2023-05-21T00:26:42;13.33;;;7.37;;
7169;SDS011;3626;42.656;23.312;2023-05-21T00:26:48;14.73;;;7.50;;
7169;SDS011;3626;42.656;23.312;2023-05-21T00:26:54;14.67;;;7.30;;
7169;SDS011;3626;42.656;23.312;2023-05-21T00:27:01;14.48;;;7.30;;
7169;SDS011;3626;42.656;23.312;2023-05-21T00:27:07;15.07;;;7.43;;
7169;SDS011;3626;42.656;23.312;2023-05-21T00:27:13;15.43;;;7.50;;
7169;SDS011;3626;42.656;23.312;2023-05-21T00:27:19;15.00;;;7.33;;
7169;SDS011;3626;42.656;23.312;2023-05-21T00:27:25;14.73;;;7.00;;
7169;SDS011;3626;42.656;23.312;2023-05-21T00:27:31;17.83;;;7.10;;
7169;SDS011;3626;42.656;23.312;2023-05-21T00:27:37;18.48;;;7.30;;
7169;SDS011;3626;42.656;23.312;2023-05-21T00:27:44;16.24;;;7.40;;
7169;SDS011;3626;42.656;23.312;2023-05-21T00:27:50;16.03;;;7.63;;
7169;SDS011;3626;42.656;23.312;2023-05-21T00:27:57;17.47;;;7.77;;
7169;SDS011;3626;42.656;23.312;2023-05-21T00:28:03;17.33;;;7.77;;
7169;SDS011;3626;42.656;23.312;2023-05-21T00:28:09;17.35;;;7.65;;
7169;SDS011;3626;42.656;23.312;2023-05-21T00:28:15;17.63;;;7.80;;
7169;SDS011;3626;42.656;23.312;2023-05-21T00:28:21;17.67;;;7.97;;
7169;SDS011;3626;42.656;23.312;2023-05-21T00:28:27;15.50;;;7.75;;
7169;SDS011;3626;42.656;23.312;2023-05-21T00:28:33;13.30;;;7.30;;
7169;SDS011;3626;42.656;23.312;2023-05-21T00:28:39;13.05;;;7.20;;
7169;SDS011;3626;42.656;23.312;2023-05-21T00:28:45;13.13;;;6.97;;
7169;SDS011;3626;42.656;23.312;2023-05-21T00:28:51;12.70;;;6.90;;
7169;SDS011;3626;42.656;23.312;2023-05-21T00:28:57;11.90;;;6.90;;
7169;SDS011;3626;42.656;23.312;2023-05-21T00:29:03;12.30;;;6.90;;
7169;SDS011;3626;42.656;23.312;2023-05-21T00:29:09;11.75;;;6.93;;
7169;SDS011;3626;42.656;23.312;2023-05-21T00:29:15;12.20;;;6.93;;
7169;SDS011;3626;42.656;23.312;2023-05-21T00:29:22;12.83;;;7.00;;
7169;SDS011;3626;42.656;23.312;2023-05-21T00:29:28;13.35;;;7.20;;
7169;SDS011;3626;42.656;23.312;2023-05-21T00:29:37;13.67;;;7.70;;
7169;SDS011;3626;42.656;23.312;2023-05-21T00:29:43;13.43;;;7.73;;
7169;SDS011;3626;42.656;23.312;2023-05-21T00:29:49;13.63;;;7.90;;
7169;SDS011;3626;42.656;23.312;2023-05-21T00:29:55;13.77;;;7.93;;
7169;SDS011;3626;42.656;23.312;2023-05-21T00:30:01;13.70;;;7.97;;
7169;SDS011;3626;42.656;23.312;2023-05-21T00:30:08;14.00;;;8.17;;
7169;SDS011;3626;42.656;23.312;2023-05-21T00:30:14;14.63;;;8.10;;
7169;SDS011;3626;42.656;23.312;2023-05-21T00:30:21;14.63;;;8.03;;
7169;SDS011;3626;42.656;23.312;2023-05-21T00:30:27;14.53;;;7.93;;
7169;SDS011;3626;42.656;23.312;2023-05-21T00:30:33;15.07;;;7.82;;
7169;SDS011;3626;42.656;23.312;2023-05-21T00:30:39;15.23;;;7.68;;
7169;SDS011;3626;42.656;23.312;2023-05-21T00:30:45;16.27;;;7.80;;
7169;SDS011;3626;42.656;23.312;2023-05-21T00:30:54;16.91;;;7.77;;
7169;SDS011;3626;42.656;23.312;2023-05-21T00:31:00;16.80;;;7.70;;
7169;SDS011;3626;42.656;23.312;2023-05-21T00:31:06;16.88;;;7.65;;
7169;SDS011;3626;42.656;23.312;2023-05-21T00:31:12;16.40;;;7.66;;
7169;SDS011;3626;42.656;23.312;2023-05-21T00:31:20;15.80;;;7.73;;
7169;SDS011;3626;42.656;23.312;2023-05-21T00:31:26;15.85;;;7.75;;
7169;SDS011;3626;42.656;23.312;2023-05-21T00:31:32;15.68;;;7.72;;
7169;SDS011;3626;42.656;23.312;2023-05-21T00:31:38;14.93;;;7.43;;
7169;SDS011;3626;42.656;23.312;2023-05-21T00:31:44;13.77;;;7.40;;
7169;SDS011;3626;42.656;23.312;2023-05-21T00:31:50;13.27;;;7.40;;
7169;SDS011;3626;42.656;23.312;2023-05-21T00:31:56;12.20;;;7.50;;
7169;SDS011;3626;42.656;23.312;2023-05-21T00:32:02;12.20;;;7.40;;
7169;SDS011;3626;42.656;23.312;2023-05-21T00:32:09;11.94;;;7.48;;
7169;SDS011;3626;42.656;23.312;2023-05-21T00:32:16;11.73;;;7.40;;
7169;SDS011;3626;42.656;23.312;2023-05-21T00:32:22;12.23;;;7.77;;
7169;SDS011;3626;42.656;23.312;2023-05-21T00:32:29;12.38;;;7.90;;
7169;SDS011;3626;42.656;23.312;2023-05-21T00:32:35;12.80;;;8.20;;
7169;SDS011;3626;42.656;23.312;2023-05-21T00:32:41;12.83;;;8.30;;
7169;SDS011;3626;42.656;23.312;2023-05-21T00:32:47;12.75;;;8.25;;
7169;SDS011;3626;42.656;23.312;2023-05-21T00:32:53;13.18;;;8.40;;
7169;SDS011;3626;42.656;23.312;2023-05-21T00:33:02;14.03;;;8.47;;
7169;SDS011;3626;42.656;23.312;2023-05-21T00:33:08;15.95;;;8.60;;
7169;SDS011;3626;42.656;23.312;2023-05-21T00:33:17;15.73;;;8.60;;
7169;SDS011;3626;42.656;23.312;2023-05-21T00:33:26;14.90;;;8.20;;
7169;SDS011;3626;42.656;23.312;2023-05-21T00:33:33;14.32;;;7.90;;
7169;SDS011;3626;42.656;23.312;2023-05-21T00:33:39;14.25;;;7.88;;
7169;SDS011;3626;42.656;23.312;2023-05-21T00:33:45;14.83;;;7.90;;
7169;SDS011;3626;42.656;23.312;2023-05-21T00:33:51;14.83;;;7.70;;
7169;SDS011;3626;42.656;23.312;2023-05-21T00:33:57;14.07;;;7.53;;
7169;SDS011;3626;42.656;23.312;2023-05-21T00:34:03;13.10;;;7.55;;
7169;SDS011;3626;42.656;23.312;2023-05-21T00:34:09;12.10;;;7.25;;
7169;SDS011;3626;42.656;23.312;2023-05-21T00:34:15;12.70;;;7.27;;
7169;SDS011;3626;42.656;23.312;2023-05-21T00:34:21;13.23;;;7.30;;
7169;SDS011;3626;42.656;23.312;2023-05-21T00:34:27;13.25;;;7.38;;
7169;SDS011;3626;42.656;23.312;2023-05-21T00:34:34;13.38;;;7.47;;
7169;SDS011;3626;42.656;23.312;2023-05-21T00:34:41;13.40;;;7.44;;
7169;SDS011;3626;42.656;23.312;2023-05-21T00:34:50;12.91;;;7.39;;
7169;SDS011;3626;42.656;23.312;2023-05-21T00:34:55;13.05;;;7.50;;
7169;SDS011;3626;42.656;23.312;2023-05-21T00:35:02;12.80;;;7.40;;
7169;SDS011;3626;42.656;23.312;2023-05-21T00:35:08;12.37;;;7.40;;
7169;SDS011;3626;42.656;23.312;2023-05-21T00:35:15;12.23;;;7.43;;
7169;SDS011;3626;42.656;23.312;2023-05-21T00:35:23;12.07;;;7.50;;
7169;SDS011;3626;42.656;23.312;2023-05-21T00:35:29;12.68;;;7.55;;
7169;SDS011;3626;42.656;23.312;2023-05-21T00:35:35;12.17;;;7.27;;
7169;SDS011;3626;42.656;23.312;2023-05-21T00:35:41;12.32;;;7.38;;
7169;SDS011;3626;42.656;23.312;2023-05-21T00:35:47;12.47;;;7.37;;
7169;SDS011;3626;42.656;23.312;2023-05-21T00:35:53;12.23;;;7.30;;
7169;SDS011;3626;42.656;23.312;2023-05-21T00:35:59;12.23;;;7.38;;
7169;SDS011;3626;42.656;23.312;2023-05-21T00:36:07;13.65;;;7.58;;
7169;SDS011;3626;42.656;23.312;2023-05-21T00:36:13;13.40;;;7.55;;
7169;SDS011;3626;42.656;23.312;2023-05-21T00:36:20;13.13;;;7.50;;
7169;SDS011;3626;42.656;23.312;2023-05-21T00:36:28;12.90;;;7.50;;
7169;SDS011;3626;42.656;23.312;2023-05-21T00:36:35;12.92;;;7.74;;
7169;SDS011;3626;42.656;23.312;2023-05-21T00:36:41;13.20;;;7.80;;
7169;SDS011;3626;42.656;23.312;2023-05-21T00:36:49;13.40;;;7.90;;
7169;SDS011;3626;42.656;23.312;2023-05-21T00:36:57;13.90;;;7.87;;
7169;SDS011;3626;42.656;23.312;2023-05-21T00:37:06;13.00;;;7.90;;
7169;SDS011;3626;42.656;23.312;2023-05-21T00:37:14;13.02;;;8.00;;
7169;SDS011;3626;42.656;23.312;2023-05-21T00:37:20;13.32;;;8.15;;
7169;SDS011;3626;42.656;23.312;2023-05-21T00:37:28;14.53;;;8.00;;
7169;SDS011;3626;42.656;23.312;2023-05-21T00:37:38;16.00;;;8.00;;
7169;SDS011;3626;42.656;23.312;2023-05-21T00:37:46;15.90;;;8.00;;
7169;SDS011;3626;42.656;23.312;2023-05-21T00:37:52;15.66;;;8.08;;
7169;SDS011;3626;42.656;23.312;2023-05-21T00:37:58;15.75;;;8.10;;
7169;SDS011;3626;42.656;23.312;2023-05-21T00:38:05;15.70;;;8.00;;
7169;SDS011;3626;42.656;23.312;2023-05-21T00:38:11;15.78;;;8.12;;
7169;SDS011;3626;42.656;23.312;2023-05-21T00:38:18;15.98;;;8.02;;
7169;SDS011;3626;42.656;23.312;2023-05-21T00:38:24;16.38;;;8.05;;
7169;SDS011;3626;42.656;23.312;2023-05-21T00:38:32;15.17;;;8.15;;
7169;SDS011;3626;42.656;23.312;2023-05-21T00:38:38;13.70;;;7.90;;
7169;SDS011;3626;42.656;23.312;2023-05-21T00:38:44;15.13;;;7.93;;
7169;SDS011;3626;42.656;23.312;2023-05-21T00:38:50;17.88;;;7.90;;
7169;SDS011;3626;42.656;23.312;2023-05-21T00:38:56;18.83;;;8.27;;
7169;SDS011;3626;42.656;23.312;2023-05-21T00:39:03;19.00;;;8.20;;
7169;SDS011;3626;42.656;23.312;2023-05-21T00:39:09;18.38;;;7.90;;
7169;SDS011;3626;42.656;23.312;2023-05-21T00:39:18;18.01;;;7.77;;
7169;SDS011;3626;42.656;23.312;2023-05-21T00:39:25;17.52;;;7.68;;
7169;SDS011;3626;42.656;23.312;2023-05-21T00:39:31;17.83;;;7.83;;
7169;SDS011;3626;42.656;23.312;2023-05-21T00:39:37;18.00;;;7.90;;
7169;SDS011;3626;42.656;23.312;2023-05-21T00:39:43;18.45;;;7.97;;
7169;SDS011;3626;42.656;23.312;2023-05-21T00:39:49;16.15;;;8.05;;
7169;SDS011;3626;42.656;23.312;2023-05-21T00:39:55;15.85;;;7.75;;
7169;SDS011;3626;42.656;23.312;2023-05-21T00:40:01;15.83;;;7.67;;
7169;SDS011;3626;42.656;23.312;2023-05-21T00:40:10;16.00;;;7.80;;
7169;SDS011;3626;42.656;23.312;2023-05-21T00:40:17;16.17;;;7.90;;